Time;durP1;ratioP1;P1;durP2;ratioP2;P2;SDS_P1;SDS_P2;PMS_P1;PMS_P2;Temp;Humidity;BMP_temperature;BMP_pressure;BME280_temperature;BME280_humidity;BME280_pressure;Samples;Min_cycle;Max_cycle;Signal;HPM_P1;HPM_P2
2022/10/27 00:00:49;;;;;;;;;;;;;;;;;;2072063;28;19945;-87
2022/10/27 00:01:50;;;;;;;;;;;;;;;;;;2071548;28;19920;-87
2022/10/27 00:02:50;;;;;;;;;;;;;;;;;;2063374;28;19913;-87
2022/10/27 00:03:51;;;;;;;;;;;;;;;;;;2071669;28;20194;-87
2022/10/27 00:04:51;;;;;;;;;;;;;;;;;;2070915;28;19924;-86
2022/10/27 00:05:52;;;;;;;;;;;;;;;;;;2071733;28;19949;-87
2022/10/27 00:06:52;;;;;;;;;;;;;;;;;;2072221;28;19971;-87
2022/10/27 00:07:52;;;;;;;;;;;;;;;;;;2072219;28;19967;-87
2022/10/27 00:08:52;;;;;;;;;;;;;;;;;;2071638;28;19921;-87
2022/10/27 00:09:53;;;;;;;;;;;;;;;;;;2063493;28;19922;-87
2022/10/27 00:10:57;;;;;;;;;;;;;;;;;;2071574;28;20332;-87
2022/10/27 00:11:57;;;;;;;;;;;;;;;;;;2071564;28;20308;-88
2022/10/27 00:12:57;;;;;;;;;;;;;;;;;;2071565;28;19914;-88
2022/10/27 00:13:58;;;;;;;;;;;;;;;;;;1737625;28;10001033;-88
2022/10/27 00:14:59;;;;;;;;;;;;;;;;;;2063505;28;20389;-88
2022/10/27 00:16:00;;;;;;;;;;;;;;;;;;2056773;28;20012;-88
2022/10/27 00:17:01;;;;;;;;;;;;;;;;;;2063664;28;20434;-88
2022/10/27 00:18:05;;;;;;;;;;;;;;;;;;2071640;28;19914;-88
2022/10/27 00:19:06;;;;;;;;;;;;;;;;;;2072370;28;19940;-88
2022/10/27 00:20:06;;;;;;;;;;;;;;;;;;2071701;28;20411;-87
2022/10/27 00:21:08;;;;;;;;;;;;;;;;;;2071590;28;19913;-87
2022/10/27 00:22:08;;;;;;;;;;;;;;;;;;2071801;28;20503;-88
2022/10/27 00:23:08;;;;;;;;;;;;;;;;;;2071443;28;19913;-87
2022/10/27 00:24:08;;;;;;;;;;;;;;;;;;2072137;28;19918;-87
2022/10/27 00:25:09;;;;;;;;;;;;;;;;;;2071441;28;20470;-87
2022/10/27 00:26:11;;;;;;;;;;;;;;;;;;2071755;28;20317;-87
2022/10/27 00:27:11;;;;;;;;;;;;;;;;;;2071201;28;20348;-88
2022/10/27 00:28:11;;;;;;;;;;;;;;;;;;2071514;28;19921;-87
2022/10/27 00:29:12;;;;;;;;;;;;;;;;;;2072020;28;19913;-87
2022/10/27 00:30:12;;;;;;;;;;;;;;;;;;2071812;28;20388;-87
2022/10/27 00:31:17;;;;;;;;;;;;;;;;;;2072243;28;19978;-88
2022/10/27 00:32:17;;;;;;;;;;;;;;;;;;2071965;28;19967;-88
2022/10/27 00:33:17;;;;;;;;;;;;;;;;;;2071977;28;19987;-88
2022/10/27 00:34:18;;;;;;;;;;;;;;;;;;2071962;28;20377;-88
2022/10/27 00:35:18;;;;;;;;;;;;;;;;;;2072004;28;19956;-88
2022/10/27 00:36:21;;;;;;;;;;;;;;;;;;2071384;28;20351;-88
2022/10/27 00:37:22;;;;;;;;;;;;;;;;;;2063443;28;19941;-88
2022/10/27 00:38:22;;;;;;;;;;;;;;;;;;2071110;28;19920;-88
2022/10/27 00:39:22;;;;;;;;;;;;;;;;;;2071326;28;20130;-88
2022/10/27 00:40:23;;;;;;;;;;;;;;;;;;2063164;28;19914;-88
2022/10/27 00:41:25;;;;;;;;;;;;;;;;;;2071254;28;19987;-88
2022/10/27 00:42:25;;;;;;;;;;;;;;;;;;2070984;28;19958;-88
2022/10/27 00:43:27;;;;;;;;;;;;;;;;;;2071163;28;19918;-88
2022/10/27 00:44:33;;;;;;;;;;;;;;;;;;2071123;28;19913;-88
2022/10/27 00:45:34;;;;;;;;;;;;;;;;;;2063914;28;19921;-88
2022/10/27 00:46:39;;;;;;;;;;;;;;;;;;2071609;28;20348;-88
2022/10/27 00:47:39;;;;;;;;;;;;;;;;;;2079346;28;19921;-88
2022/10/27 00:48:40;;;;;;;;;;;;;;;;;;2079238;28;19951;-88
2022/10/27 00:49:42;;;;;;;;;;;;;;;;;;2071035;28;19918;-89
2022/10/27 00:50:43;;;;;;;;;;;;;;;;;;2071293;28;20288;-88
2022/10/27 00:51:49;;;;;;;;;;;;;;;;;;2071255;28;19914;-88
2022/10/27 00:52:55;;;;;;;;;;;;;;;;;;2071204;28;19913;-89
2022/10/27 00:53:55;;;;;;;;;;;;;;;;;;2071532;28;20001;-88
2022/10/27 00:54:57;;;;;;;;;;;;;;;;;;2071233;28;19917;-88
2022/10/27 00:55:57;;;;;;;;;;;;;;;;;;2071889;28;20036;-87
2022/10/27 00:56:58;;;;;;;;;;;;;;;;;;2071191;28;19914;-88
2022/10/27 00:58:00;;;;;;;;;;;;;;;;;;2063067;28;19921;-88
2022/10/27 00:59:00;;;;;;;;;;;;;;;;;;2071187;28;19928;-88
2022/10/27 01:00:03;;;;;;;;;;;;;;;;;;2071086;28;19985;-88
2022/10/27 01:01:03;;;;;;;;;;;;;;;;;;2063361;28;19914;-88
2022/10/27 01:02:04;;;;;;;;;;;;;;;;;;2062905;28;19949;-88
2022/10/27 01:03:05;;;;;;;;;;;;;;;;;;2071160;28;19914;-87
2022/10/27 01:04:06;;;;;;;;;;;;;;;;;;2071086;28;19918;-87
2022/10/27 01:05:13;;;;;;;;;;;;;;;;;;2063122;28;19981;-87
2022/10/27 01:06:13;;;;;;;;;;;;;;;;;;2071212;28;20015;-87
2022/10/27 01:07:15;;;;;;;;;;;;;;;;;;2071162;28;20412;-87
2022/10/27 01:08:16;;;;;;;;;;;;;;;;;;2063282;28;19913;-87
2022/10/27 01:09:17;;;;;;;;;;;;;;;;;;2063119;28;20381;-87
2022/10/27 01:10:17;;;;;;;;;;;;;;;;;;2071247;28;19933;-87
2022/10/27 01:11:17;;;;;;;;;;;;;;;;;;2070969;28;20376;-87
2022/10/27 01:12:18;;;;;;;;;;;;;;;;;;2071152;28;19920;-87
2022/10/27 01:13:19;;;;;;;;;;;;;;;;;;2070968;28;20375;-87
2022/10/27 01:14:19;;;;;;;;;;;;;;;;;;2063233;28;19995;-87
2022/10/27 01:15:21;;;;;;;;;;;;;;;;;;2071292;28;20309;-87
2022/10/27 01:16:43;;;;;;;;;;;;;;;;;;2071177;28;19914;-86
2022/10/27 01:17:47;;;;;;;;;;;;;;;;;;2072834;28;20415;-87
2022/10/27 01:18:54;;;;;;;;;;;;;;;;;;2073316;28;20381;-88
2022/10/27 01:20:30;;;;;;;;;;;;;;;;;;2073324;28;19925;-88
2022/10/27 01:21:34;;;;;;;;;;;;;;;;;;2048972;29;19922;-87
2022/10/27 01:22:52;;;;;;;;;;;;;;;;;;2052722;28;19915;-87
2022/10/27 01:23:55;;;;;;;;;;;;;;;;;;2067351;28;19936;-87
2022/10/27 01:24:58;;;;;;;;;;;;;;;;;;2072736;28;20336;-87
2022/10/27 01:25:58;;;;;;;;;;;;;;;;;;2065274;28;19922;-86
2022/10/27 01:27:01;;;;;;;;;;;;;;;;;;2074021;28;19913;-85
2022/10/27 01:28:19;;;;;;;;;;;;;;;;;;2081501;28;19932;-87
2022/10/27 01:29:20;;;;;;;;;;;;;;;;;;2077558;28;19921;-86
2022/10/27 01:30:22;;;;;;;;;;;;;;;;;;2074953;28;20275;-87
2022/10/27 01:31:25;;;;;;;;;;;;;;;;;;2075712;28;19925;-87
2022/10/27 01:32:29;;;;;;;;;;;;;;;;;;2083200;28;19925;-87
2022/10/27 01:33:37;;;;;;;;;;;;;;;;;;2075951;28;19925;-87
2022/10/27 01:34:41;;;;;;;;;;;;;;;;;;2074317;28;19917;-86
2022/10/27 01:35:48;;;;;;;;;;;;;;;;;;2073266;28;19914;-87
2022/10/27 01:36:54;;;;;;;;;;;;;;;;;;2065483;28;20246;-86
2022/10/27 01:37:58;;;;;;;;;;;;;;;;;;2072962;28;19967;-86
2022/10/27 01:39:14;;;;;;;;;;;;;;;;;;2072497;28;19941;-87
2022/10/27 01:40:15;;;;;;;;;;;;;;;;;;2066453;28;20004;-87
2022/10/27 01:41:21;;;;;;;;;;;;;;;;;;2064560;28;20322;-87
2022/10/27 01:42:26;;;;;;;;;;;;;;;;;;2065229;28;20020;-87
2022/10/27 01:43:27;;;;;;;;;;;;;;;;;;2064797;28;19984;-88
2022/10/27 01:44:30;;;;;;;;;;;;;;;;;;2064247;28;19914;-86
2022/10/27 01:45:32;;;;;;;;;;;;;;;;;;2072626;28;19914;-88
2022/10/27 01:46:35;;;;;;;;;;;;;;;;;;2079996;28;19968;-87
2022/10/27 01:47:36;;;;;;;;;;;;;;;;;;2084360;28;19910;-95
2022/10/27 01:48:37;;;;;;;;;;;;;;;;;;2075844;28;19920;-96
2022/10/27 01:49:39;;;;;;;;;;;;;;;;;;2076288;28;19910;-93
2022/10/27 01:50:40;;;;;;;;;;;;;;;;;;2076498;28;19910;-94
2022/10/27 01:51:41;;;;;;;;;;;;;;;;;;2078887;28;19928;-96
2022/10/27 01:52:46;;;;;;;;;;;;;;;;;;2076805;28;20292;-95
2022/10/27 01:53:47;;;;;;;;;;;;;;;;;;2070256;28;19941;-86
2022/10/27 01:54:47;;;;;;;;;;;;;;;;;;2072889;28;19940;-87
2022/10/27 01:56:00;;;;;;;;;;;;;;;;;;2073113;28;20385;-87
2022/10/27 01:57:06;;;;;;;;;;;;;;;;;;2072749;28;19968;-87
2022/10/27 01:58:12;;;;;;;;;;;;;;;;;;2072732;28;19970;-87
2022/10/27 01:59:12;;;;;;;;;;;;;;;;;;2072399;28;20008;-87
2022/10/27 02:00:13;;;;;;;;;;;;;;;;;;2049748;28;19917;-88
2022/10/27 02:01:13;;;;;;;;;;;;;;;;;;2072084;28;20037;-88
2022/10/27 02:02:19;;;;;;;;;;;;;;;;;;2068675;28;20076;-87
2022/10/27 02:03:22;;;;;;;;;;;;;;;;;;2065003;28;19968;-87
2022/10/27 02:04:41;;;;;;;;;;;;;;;;;;2072579;28;19913;-88
2022/10/27 02:05:57;;;;;;;;;;;;;;;;;;2073039;28;19949;-87
2022/10/27 02:07:09;;;;;;;;;;;;;;;;;;2073061;28;20042;-87
2022/10/27 02:08:18;;;;;;;;;;;;;;;;;;2072178;28;20395;-87
2022/10/27 02:09:24;;;;;;;;;;;;;;;;;;2072428;28;20027;-87
2022/10/27 02:10:27;;;;;;;;;;;;;;;;;;2073117;28;20373;-87
2022/10/27 02:11:29;;;;;;;;;;;;;;;;;;2072327;28;19948;-87
2022/10/27 02:12:30;;;;;;;;;;;;;;;;;;2064401;28;20255;-87
2022/10/27 02:13:33;;;;;;;;;;;;;;;;;;2072483;28;20020;-87
2022/10/27 02:14:34;;;;;;;;;;;;;;;;;;2072292;28;19920;-87
2022/10/27 02:15:36;;;;;;;;;;;;;;;;;;2072556;28;19944;-87
2022/10/27 02:16:39;;;;;;;;;;;;;;;;;;2072322;28;20414;-87
2022/10/27 02:17:41;;;;;;;;;;;;;;;;;;2064442;28;19924;-86
2022/10/27 02:18:43;;;;;;;;;;;;;;;;;;2064247;28;19914;-87
2022/10/27 02:19:45;;;;;;;;;;;;;;;;;;2072370;28;20360;-88
2022/10/27 02:20:49;;;;;;;;;;;;;;;;;;2072817;28;19918;-88
2022/10/27 02:21:51;;;;;;;;;;;;;;;;;;2072204;28;19940;-87
2022/10/27 02:22:52;;;;;;;;;;;;;;;;;;2072173;28;19914;-88
2022/10/27 02:23:53;;;;;;;;;;;;;;;;;;2072256;28;20329;-88
2022/10/27 02:24:55;;;;;;;;;;;;;;;;;;2064175;28;19918;-88
2022/10/27 02:25:57;;;;;;;;;;;;;;;;;;2064438;28;20008;-88
2022/10/27 02:26:57;;;;;;;;;;;;;;;;;;2072152;28;19913;-87
2022/10/27 02:28:01;;;;;;;;;;;;;;;;;;2072540;28;20388;-87
2022/10/27 02:29:03;;;;;;;;;;;;;;;;;;2072392;28;19928;-88
2022/10/27 02:30:04;;;;;;;;;;;;;;;;;;2072366;28;20037;-88
2022/10/27 02:31:06;;;;;;;;;;;;;;;;;;2072038;28;19958;-88
2022/10/27 02:32:09;;;;;;;;;;;;;;;;;;2072422;28;19919;-88
2022/10/27 02:33:09;;;;;;;;;;;;;;;;;;2072017;28;20154;-87
2022/10/27 02:34:10;;;;;;;;;;;;;;;;;;2064074;28;19953;-87
2022/10/27 02:35:11;;;;;;;;;;;;;;;;;;2063859;28;20075;-88
2022/10/27 02:36:11;;;;;;;;;;;;;;;;;;2063998;28;19976;-88
2022/10/27 02:37:16;;;;;;;;;;;;;;;;;;2071859;28;19913;-88
2022/10/27 02:38:17;;;;;;;;;;;;;;;;;;2072978;28;19921;-86
2022/10/27 02:39:17;;;;;;;;;;;;;;;;;;2072609;28;19992;-87
2022/10/27 02:40:17;;;;;;;;;;;;;;;;;;2072897;28;20317;-88
2022/10/27 02:41:17;;;;;;;;;;;;;;;;;;2072665;28;20398;-87
2022/10/27 02:42:18;;;;;;;;;;;;;;;;;;2072785;28;19917;-87
2022/10/27 02:43:18;;;;;;;;;;;;;;;;;;2071892;28;20389;-88
2022/10/27 02:44:18;;;;;;;;;;;;;;;;;;2072109;28;20261;-88
2022/10/27 02:45:20;;;;;;;;;;;;;;;;;;2072670;28;20182;-88
2022/10/27 02:46:20;;;;;;;;;;;;;;;;;;2071879;28;19917;-88
2022/10/27 02:47:20;;;;;;;;;;;;;;;;;;2072068;28;19929;-88
2022/10/27 02:48:21;;;;;;;;;;;;;;;;;;2072480;28;19952;-88
2022/10/27 02:49:21;;;;;;;;;;;;;;;;;;2071944;28;19933;-87
2022/10/27 02:50:21;;;;;;;;;;;;;;;;;;2072208;28;19922;-87
2022/10/27 02:51:21;;;;;;;;;;;;;;;;;;2072688;28;19913;-87
2022/10/27 02:52:22;;;;;;;;;;;;;;;;;;2072597;28;20387;-87
2022/10/27 02:53:22;;;;;;;;;;;;;;;;;;2072782;28;19921;-88
2022/10/27 02:54:22;;;;;;;;;;;;;;;;;;2072738;28;19941;-87
2022/10/27 02:55:23;;;;;;;;;;;;;;;;;;2072618;28;20403;-87
2022/10/27 02:56:23;;;;;;;;;;;;;;;;;;2072679;28;19913;-88
2022/10/27 02:57:24;;;;;;;;;;;;;;;;;;2072670;28;19913;-88
2022/10/27 02:58:24;;;;;;;;;;;;;;;;;;2071921;28;20408;-87
2022/10/27 02:59:24;;;;;;;;;;;;;;;;;;2072084;28;19921;-88
2022/10/27 03:00:24;;;;;;;;;;;;;;;;;;2072483;28;19914;-88
2022/10/27 03:01:25;;;;;;;;;;;;;;;;;;2076182;28;19958;-88
2022/10/27 03:02:25;;;;;;;;;;;;;;;;;;2078903;28;19968;-87
2022/10/27 03:03:25;;;;;;;;;;;;;;;;;;2074949;28;19936;-87
2022/10/27 03:04:26;;;;;;;;;;;;;;;;;;2072210;28;19914;-86
2022/10/27 03:05:26;;;;;;;;;;;;;;;;;;2073010;28;20321;-87
2022/10/27 03:06:26;;;;;;;;;;;;;;;;;;2071856;28;19920;-87
2022/10/27 03:07:26;;;;;;;;;;;;;;;;;;2071985;28;20495;-87
2022/10/27 03:08:27;;;;;;;;;;;;;;;;;;2072838;28;19983;-87
2022/10/27 03:09:27;;;;;;;;;;;;;;;;;;2072582;28;19914;-87
2022/10/27 03:10:27;;;;;;;;;;;;;;;;;;2071976;28;19914;-87
2022/10/27 03:11:28;;;;;;;;;;;;;;;;;;2063801;28;20393;-87
2022/10/27 03:12:28;;;;;;;;;;;;;;;;;;2063780;28;19933;-87
2022/10/27 03:13:28;;;;;;;;;;;;;;;;;;2071938;28;19913;-87
2022/10/27 03:14:28;;;;;;;;;;;;;;;;;;2079901;28;19924;-87
2022/10/27 03:15:29;;;;;;;;;;;;;;;;;;2072686;28;19940;-87
2022/10/27 03:16:29;;;;;;;;;;;;;;;;;;2071872;28;19949;-86
2022/10/27 03:17:29;;;;;;;;;;;;;;;;;;2063836;28;19968;-86
2022/10/27 03:18:29;;;;;;;;;;;;;;;;;;2063850;28;19926;-87
2022/10/27 03:19:30;;;;;;;;;;;;;;;;;;2072738;28;19991;-86
2022/10/27 03:20:30;;;;;;;;;;;;;;;;;;2076951;28;19921;-86
2022/10/27 03:21:30;;;;;;;;;;;;;;;;;;2076684;28;19929;-86
2022/10/27 03:22:35;;;;;;;;;;;;;;;;;;2072198;28;20354;-87
2022/10/27 03:23:35;;;;;;;;;;;;;;;;;;2064408;28;19956;-87
2022/10/27 03:24:35;;;;;;;;;;;;;;;;;;2064168;28;19965;-86
2022/10/27 03:25:36;;;;;;;;;;;;;;;;;;2071839;28;19917;-87
2022/10/27 03:26:36;;;;;;;;;;;;;;;;;;2072186;28;19952;-86
2022/10/27 03:27:43;;;;;;;;;;;;;;;;;;2071935;28;19948;-86
2022/10/27 03:28:43;;;;;;;;;;;;;;;;;;2072527;28;19913;-86
2022/10/27 03:29:43;;;;;;;;;;;;;;;;;;2072726;28;19913;-87
2022/10/27 03:30:43;;;;;;;;;;;;;;;;;;2072793;28;20400;-86
2022/10/27 03:31:44;;;;;;;;;;;;;;;;;;2071900;28;20005;-87
2022/10/27 03:32:48;;;;;;;;;;;;;;;;;;2071994;28;19913;-87
2022/10/27 03:33:48;;;;;;;;;;;;;;;;;;2072606;28;19918;-88
2022/10/27 03:34:48;;;;;;;;;;;;;;;;;;2071842;28;20024;-87
2022/10/27 03:35:48;;;;;;;;;;;;;;;;;;2071803;28;19913;-87
2022/10/27 03:36:49;;;;;;;;;;;;;;;;;;2072576;28;19964;-85
2022/10/27 03:37:56;;;;;;;;;;;;;;;;;;2071575;28;19960;-87
2022/10/27 03:38:56;;;;;;;;;;;;;;;;;;2064361;28;20005;-88
2022/10/27 03:39:56;;;;;;;;;;;;;;;;;;2062964;28;20389;-87
2022/10/27 03:40:56;;;;;;;;;;;;;;;;;;2071835;28;19929;-88
2022/10/27 03:41:57;;;;;;;;;;;;;;;;;;2072447;28;19936;-88
2022/10/27 03:43:08;;;;;;;;;;;;;;;;;;2074737;28;19902;-96
2022/10/27 03:44:08;;;;;;;;;;;;;;;;;;2057659;28;19922;-88
2022/10/27 03:45:09;;;;;;;;;;;;;;;;;;2064310;28;19948;-87
2022/10/27 03:46:09;;;;;;;;;;;;;;;;;;2063597;28;19928;-88
2022/10/27 03:47:10;;;;;;;;;;;;;;;;;;2063694;28;19922;-88
2022/10/27 03:48:10;;;;;;;;;;;;;;;;;;2071752;28;19963;-88
2022/10/27 03:49:12;;;;;;;;;;;;;;;;;;2071927;28;20393;-88
2022/10/27 03:50:12;;;;;;;;;;;;;;;;;;2064326;28;19973;-87
2022/10/27 03:51:13;;;;;;;;;;;;;;;;;;2063605;28;20352;-86
2022/10/27 03:52:13;;;;;;;;;;;;;;;;;;2056248;28;19977;-86
2022/10/27 03:53:14;;;;;;;;;;;;;;;;;;2056704;28;19915;-87
2022/10/27 03:54:15;;;;;;;;;;;;;;;;;;2064377;28;20368;-86
2022/10/27 03:55:15;;;;;;;;;;;;;;;;;;2064332;28;19913;-86
2022/10/27 03:56:15;;;;;;;;;;;;;;;;;;2065472;28;19918;-86
2022/10/27 03:57:15;;;;;;;;;;;;;;;;;;2082424;28;19929;-87
2022/10/27 03:58:16;;;;;;;;;;;;;;;;;;2082375;28;19918;-87
2022/10/27 03:59:17;;;;;;;;;;;;;;;;;;2082122;28;19937;-87
2022/10/27 04:00:17;;;;;;;;;;;;;;;;;;2081781;28;20369;-87
2022/10/27 04:01:18;;;;;;;;;;;;;;;;;;2070912;28;19914;-87
2022/10/27 04:02:18;;;;;;;;;;;;;;;;;;2063681;28;19956;-86
2022/10/27 04:03:18;;;;;;;;;;;;;;;;;;2071749;28;19968;-86
2022/10/27 04:04:19;;;;;;;;;;;;;;;;;;2063398;28;19914;-87
2022/10/27 04:05:19;;;;;;;;;;;;;;;;;;2063516;28;20026;-87
2022/10/27 04:06:19;;;;;;;;;;;;;;;;;;2064271;28;20012;-87
2022/10/27 04:07:20;;;;;;;;;;;;;;;;;;2064140;28;19922;-87
2022/10/27 04:08:20;;;;;;;;;;;;;;;;;;2064198;28;20270;-86
2022/10/27 04:09:20;;;;;;;;;;;;;;;;;;2063188;28;19961;-86
2022/10/27 04:10:20;;;;;;;;;;;;;;;;;;2055311;28;20250;-86
2022/10/27 04:11:21;;;;;;;;;;;;;;;;;;2063351;28;19921;-86
2022/10/27 04:12:23;;;;;;;;;;;;;;;;;;2062783;28;20279;-86
2022/10/27 04:13:23;;;;;;;;;;;;;;;;;;2063977;28;19918;-86
2022/10/27 04:14:23;;;;;;;;;;;;;;;;;;2063294;28;20467;-86
2022/10/27 04:15:25;;;;;;;;;;;;;;;;;;2060984;28;19922;-86
2022/10/27 04:16:26;;;;;;;;;;;;;;;;;;2067480;28;19913;-86
2022/10/27 04:17:26;;;;;;;;;;;;;;;;;;2081990;28;19928;-86
2022/10/27 04:18:27;;;;;;;;;;;;;;;;;;2082077;28;19929;-87
2022/10/27 04:19:27;;;;;;;;;;;;;;;;;;2073973;28;19921;-87
2022/10/27 04:20:28;;;;;;;;;;;;;;;;;;2074330;28;19920;-86
2022/10/27 04:21:28;;;;;;;;;;;;;;;;;;2071832;28;19947;-87
2022/10/27 04:22:28;;;;;;;;;;;;;;;;;;2063735;28;20029;-86
2022/10/27 04:23:30;;;;;;;;;;;;;;;;;;2063489;28;20404;-87
2022/10/27 04:24:30;;;;;;;;;;;;;;;;;;2064175;28;19945;-87
2022/10/27 04:25:31;;;;;;;;;;;;;;;;;;2063348;28;19914;-87
2022/10/27 04:26:31;;;;;;;;;;;;;;;;;;2063289;28;20369;-87
2022/10/27 04:27:31;;;;;;;;;;;;;;;;;;2064056;28;20016;-87
2022/10/27 04:28:32;;;;;;;;;;;;;;;;;;2063990;28;20012;-87
2022/10/27 04:29:32;;;;;;;;;;;;;;;;;;2063313;28;19929;-86
2022/10/27 04:30:33;;;;;;;;;;;;;;;;;;2063142;28;20378;-87
2022/10/27 04:31:33;;;;;;;;;;;;;;;;;;2071307;28;19913;-87
2022/10/27 04:32:34;;;;;;;;;;;;;;;;;;2071275;28;20329;-87
2022/10/27 04:33:34;;;;;;;;;;;;;;;;;;2064000;28;20004;-87
2022/10/27 04:34:34;;;;;;;;;;;;;;;;;;2063981;28;19914;-87
2022/10/27 04:35:34;;;;;;;;;;;;;;;;;;2063790;28;19913;-86
2022/10/27 04:36:35;;;;;;;;;;;;;;;;;;2063074;28;20517;-86
2022/10/27 04:37:35;;;;;;;;;;;;;;;;;;2063373;28;19914;-86
2022/10/27 04:38:35;;;;;;;;;;;;;;;;;;2063485;28;19964;-87
2022/10/27 04:39:35;;;;;;;;;;;;;;;;;;2067997;28;19945;-85
2022/10/27 04:40:36;;;;;;;;;;;;;;;;;;2068853;28;19993;-87
2022/10/27 04:41:36;;;;;;;;;;;;;;;;;;2065719;28;19914;-87
2022/10/27 04:42:36;;;;;;;;;;;;;;;;;;2064184;28;20377;-86
2022/10/27 04:43:36;;;;;;;;;;;;;;;;;;2075856;28;19921;-87
2022/10/27 04:44:37;;;;;;;;;;;;;;;;;;2071477;28;20040;-86
2022/10/27 04:45:37;;;;;;;;;;;;;;;;;;2071538;28;19913;-86
2022/10/27 04:46:37;;;;;;;;;;;;;;;;;;2072014;28;20364;-86
2022/10/27 04:47:38;;;;;;;;;;;;;;;;;;2071554;28;19976;-87
2022/10/27 04:48:38;;;;;;;;;;;;;;;;;;2071609;28;20052;-86
2022/10/27 04:49:38;;;;;;;;;;;;;;;;;;2072141;28;20312;-87
2022/10/27 04:50:39;;;;;;;;;;;;;;;;;;2071612;28;20005;-86
2022/10/27 04:51:39;;;;;;;;;;;;;;;;;;2073071;28;20434;-87
2022/10/27 04:52:41;;;;;;;;;;;;;;;;;;2073966;28;20527;-87
2022/10/27 04:53:41;;;;;;;;;;;;;;;;;;2073669;28;19996;-87
2022/10/27 04:54:41;;;;;;;;;;;;;;;;;;2073618;28;19991;-87
2022/10/27 04:55:42;;;;;;;;;;;;;;;;;;2073634;28;20304;-87
2022/10/27 04:56:42;;;;;;;;;;;;;;;;;;2073218;28;19941;-87
2022/10/27 04:57:42;;;;;;;;;;;;;;;;;;2073042;28;20324;-87
2022/10/27 04:58:42;;;;;;;;;;;;;;;;;;2074054;28;19920;-87
2022/10/27 04:59:43;;;;;;;;;;;;;;;;;;2072767;28;19917;-87
2022/10/27 05:00:43;;;;;;;;;;;;;;;;;;2065102;28;19914;-87
2022/10/27 05:01:43;;;;;;;;;;;;;;;;;;2072807;28;19940;-87
2022/10/27 05:02:44;;;;;;;;;;;;;;;;;;2072630;28;19921;-88
2022/10/27 05:03:47;;;;;;;;;;;;;;;;;;2072764;28;19917;-88
2022/10/27 05:04:47;;;;;;;;;;;;;;;;;;2073483;28;19914;-87
2022/10/27 05:05:48;;;;;;;;;;;;;;;;;;1726932;28;10001544;-87
2022/10/27 05:06:48;;;;;;;;;;;;;;;;;;2072638;28;19921;-87
2022/10/27 05:07:54;;;;;;;;;;;;;;;;;;2072130;28;20435;-88
2022/10/27 05:08:55;;;;;;;;;;;;;;;;;;2073035;28;19913;-88
2022/10/27 05:09:55;;;;;;;;;;;;;;;;;;2071917;28;19919;-87
2022/10/27 05:10:56;;;;;;;;;;;;;;;;;;2064162;28;20016;-87
2022/10/27 05:11:56;;;;;;;;;;;;;;;;;;2073317;28;19914;-86
2022/10/27 05:12:56;;;;;;;;;;;;;;;;;;2073871;28;19945;-87
2022/10/27 05:13:57;;;;;;;;;;;;;;;;;;2072651;28;20004;-87
2022/10/27 05:14:57;;;;;;;;;;;;;;;;;;2073014;28;19913;-87
2022/10/27 05:16:01;;;;;;;;;;;;;;;;;;2073374;28;19944;-87
2022/10/27 05:17:01;;;;;;;;;;;;;;;;;;2072572;28;19941;-87
2022/10/27 05:18:02;;;;;;;;;;;;;;;;;;2072357;28;19913;-88
2022/10/27 05:19:02;;;;;;;;;;;;;;;;;;2073338;28;19914;-87
2022/10/27 05:20:02;;;;;;;;;;;;;;;;;;2072304;28;20404;-87
2022/10/27 05:21:03;;;;;;;;;;;;;;;;;;2072297;28;19914;-87
2022/10/27 05:22:03;;;;;;;;;;;;;;;;;;2063986;28;20263;-87
2022/10/27 05:23:03;;;;;;;;;;;;;;;;;;2071920;28;19960;-87
2022/10/27 05:24:04;;;;;;;;;;;;;;;;;;2072171;28;19936;-87
2022/10/27 05:25:05;;;;;;;;;;;;;;;;;;2063931;28;19913;-87
2022/10/27 05:26:06;;;;;;;;;;;;;;;;;;2064030;28;20262;-87
2022/10/27 05:27:06;;;;;;;;;;;;;;;;;;2063927;28;19920;-87
2022/10/27 05:28:07;;;;;;;;;;;;;;;;;;2071933;28;19949;-87
2022/10/27 05:29:08;;;;;;;;;;;;;;;;;;2072631;28;19917;-86
2022/10/27 05:30:11;;;;;;;;;;;;;;;;;;2072637;28;19924;-86
2022/10/27 05:31:12;;;;;;;;;;;;;;;;;;2072792;28;19913;-87
2022/10/27 05:32:12;;;;;;;;;;;;;;;;;;2072757;28;20118;-87
2022/10/27 05:33:13;;;;;;;;;;;;;;;;;;2072744;28;20373;-87
2022/10/27 05:34:13;;;;;;;;;;;;;;;;;;2071845;28;20422;-86
2022/10/27 05:35:13;;;;;;;;;;;;;;;;;;2063659;28;20411;-86
2022/10/27 05:36:14;;;;;;;;;;;;;;;;;;2072046;28;20020;-86
2022/10/27 05:37:14;;;;;;;;;;;;;;;;;;2072488;28;19994;-86
2022/10/27 05:38:14;;;;;;;;;;;;;;;;;;2072639;28;19940;-86
2022/10/27 05:39:14;;;;;;;;;;;;;;;;;;2071667;28;19914;-86
2022/10/27 05:40:15;;;;;;;;;;;;;;;;;;2072051;28;20408;-86
2022/10/27 05:41:15;;;;;;;;;;;;;;;;;;2071550;28;19921;-87
2022/10/27 05:42:15;;;;;;;;;;;;;;;;;;2071754;28;20523;-86
2022/10/27 05:43:16;;;;;;;;;;;;;;;;;;2073667;28;19953;-87
2022/10/27 05:44:16;;;;;;;;;;;;;;;;;;2080747;28;20087;-87
2022/10/27 05:45:16;;;;;;;;;;;;;;;;;;2071818;28;20399;-87
2022/10/27 05:46:17;;;;;;;;;;;;;;;;;;2063739;28;19913;-87
2022/10/27 05:47:17;;;;;;;;;;;;;;;;;;2071714;28;19921;-86
2022/10/27 05:48:17;;;;;;;;;;;;;;;;;;2071624;28;19929;-87
2022/10/27 05:49:17;;;;;;;;;;;;;;;;;;2071880;28;19914;-87
2022/10/27 05:50:18;;;;;;;;;;;;;;;;;;2071546;28;19965;-86
2022/10/27 05:51:18;;;;;;;;;;;;;;;;;;2071961;28;19920;-88
2022/10/27 05:52:18;;;;;;;;;;;;;;;;;;2080357;28;19924;-87
2022/10/27 05:53:19;;;;;;;;;;;;;;;;;;2080238;28;20394;-86
2022/10/27 05:54:19;;;;;;;;;;;;;;;;;;2080457;28;20079;-87
2022/10/27 05:55:20;;;;;;;;;;;;;;;;;;2080582;28;19917;-87
2022/10/27 05:56:20;;;;;;;;;;;;;;;;;;2071378;28;20415;-87
2022/10/27 05:57:21;;;;;;;;;;;;;;;;;;2063867;28;19989;-87
2022/10/27 05:58:21;;;;;;;;;;;;;;;;;;2072216;28;19920;-86
2022/10/27 05:59:21;;;;;;;;;;;;;;;;;;2081104;28;20363;-87
2022/10/27 06:00:23;;;;;;;;;;;;;;;;;;2072326;28;19929;-87
2022/10/27 06:01:23;;;;;;;;;;;;;;;;;;2072425;28;20383;-85
2022/10/27 06:02:23;;;;;;;;;;;;;;;;;;2080418;28;19913;-87
2022/10/27 06:03:24;;;;;;;;;;;;;;;;;;2081213;28;19927;-87
2022/10/27 06:04:24;;;;;;;;;;;;;;;;;;2072188;28;19949;-87
2022/10/27 06:05:25;;;;;;;;;;;;;;;;;;2064121;28;20021;-87
2022/10/27 06:06:25;;;;;;;;;;;;;;;;;;2072215;28;20174;-87
2022/10/27 06:07:26;;;;;;;;;;;;;;;;;;2072238;28;19971;-87
2022/10/27 06:08:27;;;;;;;;;;;;;;;;;;2064147;28;19914;-87
2022/10/27 06:09:28;;;;;;;;;;;;;;;;;;2072491;28;19913;-88
2022/10/27 06:10:28;;;;;;;;;;;;;;;;;;2081147;28;20391;-87
2022/10/27 06:11:28;;;;;;;;;;;;;;;;;;2081122;28;19920;-88
2022/10/27 06:12:29;;;;;;;;;;;;;;;;;;2081086;28;20572;-88
2022/10/27 06:13:29;;;;;;;;;;;;;;;;;;2081209;28;20299;-87
2022/10/27 06:14:29;;;;;;;;;;;;;;;;;;2081040;28;20159;-87
2022/10/27 06:15:29;;;;;;;;;;;;;;;;;;2072281;28;20432;-87
2022/10/27 06:16:30;;;;;;;;;;;;;;;;;;2063991;28;19935;-87
2022/10/27 06:17:30;;;;;;;;;;;;;;;;;;2064072;28;19953;-88
2022/10/27 06:18:30;;;;;;;;;;;;;;;;;;2072361;28;19987;-87
2022/10/27 06:19:31;;;;;;;;;;;;;;;;;;2081071;28;19971;-87
2022/10/27 06:20:31;;;;;;;;;;;;;;;;;;2072253;28;20054;-87
2022/10/27 06:21:31;;;;;;;;;;;;;;;;;;2072159;28;20285;-87
2022/10/27 06:22:32;;;;;;;;;;;;;;;;;;2081111;28;20380;-88
2022/10/27 06:23:32;;;;;;;;;;;;;;;;;;2089658;28;19909;-87
2022/10/27 06:24:32;;;;;;;;;;;;;;;;;;2091550;28;19917;-87
2022/10/27 06:25:32;;;;;;;;;;;;;;;;;;1731762;28;10001156;-88
2022/10/27 06:26:33;;;;;;;;;;;;;;;;;;2066788;28;19994;-87
2022/10/27 06:27:33;;;;;;;;;;;;;;;;;;2070310;28;19914;-87
2022/10/27 06:28:33;;;;;;;;;;;;;;;;;;2074290;28;20451;-88
2022/10/27 06:29:33;;;;;;;;;;;;;;;;;;2072386;28;19956;-88
2022/10/27 06:30:34;;;;;;;;;;;;;;;;;;2064170;28;19913;-87
2022/10/27 06:31:34;;;;;;;;;;;;;;;;;;2072053;28;19932;-88
2022/10/27 06:32:38;;;;;;;;;;;;;;;;;;2080890;28;19913;-88
2022/10/27 06:33:39;;;;;;;;;;;;;;;;;;2080918;28;19987;-88
2022/10/27 06:34:39;;;;;;;;;;;;;;;;;;2083130;28;20392;-87
2022/10/27 06:35:39;;;;;;;;;;;;;;;;;;2084365;28;19971;-86
2022/10/27 06:36:39;;;;;;;;;;;;;;;;;;2084124;28;20000;-87
2022/10/27 06:37:42;;;;;;;;;;;;;;;;;;2083619;28;20019;-87
2022/10/27 06:38:42;;;;;;;;;;;;;;;;;;2081139;28;19913;-87
2022/10/27 06:39:43;;;;;;;;;;;;;;;;;;2080906;28;20320;-88
2022/10/27 06:40:43;;;;;;;;;;;;;;;;;;2081029;28;19917;-87
2022/10/27 06:41:43;;;;;;;;;;;;;;;;;;2079370;28;19939;-87
2022/10/27 06:42:45;;;;;;;;;;;;;;;;;;2074915;28;19918;-87
2022/10/27 06:43:46;;;;;;;;;;;;;;;;;;2083205;28;19929;-88
2022/10/27 06:44:46;;;;;;;;;;;;;;;;;;2083086;28;19909;-87
2022/10/27 06:45:47;;;;;;;;;;;;;;;;;;2073256;28;19914;-88
2022/10/27 06:46:47;;;;;;;;;;;;;;;;;;2066431;28;20452;-87
2022/10/27 06:47:57;;;;;;;;;;;;;;;;;;2064433;28;20040;-88
2022/10/27 06:48:57;;;;;;;;;;;;;;;;;;2073640;28;19913;-88
2022/10/27 06:49:58;;;;;;;;;;;;;;;;;;2080792;28;19920;-88
2022/10/27 06:50:59;;;;;;;;;;;;;;;;;;2071816;28;19961;-88
2022/10/27 06:51:59;;;;;;;;;;;;;;;;;;2072372;28;19920;-87
2022/10/27 06:53:00;;;;;;;;;;;;;;;;;;2071929;28;20320;-87
2022/10/27 06:54:00;;;;;;;;;;;;;;;;;;2063743;28;20061;-88
2022/10/27 06:55:00;;;;;;;;;;;;;;;;;;2063518;28;19914;-88
2022/10/27 06:56:01;;;;;;;;;;;;;;;;;;2063779;28;19969;-87
2022/10/27 06:57:01;;;;;;;;;;;;;;;;;;2071743;28;19921;-87
2022/10/27 06:58:01;;;;;;;;;;;;;;;;;;2071648;28;19961;-86
2022/10/27 06:59:01;;;;;;;;;;;;;;;;;;2071806;28;19918;-86
2022/10/27 07:00:02;;;;;;;;;;;;;;;;;;2080787;28;20012;-88